Boyers, PA (16020)

3:10 PM EDT on March 31, 2015 (GMT -0400)
Grove City | | Change Station
CLOSE
Current Station
Personal Weather Station
Location: Grove City, PA
Elevation: 1250 ft
Nearby Weather Stations

Elev 1250 ft 41.12 °N, 80.11 °W | Updated 24 seconds ago

Overcast
Overcast
41.9 °F
Feels Like 39 °F
N
4.3
Wind Variable Wind from NNE
Gusts 9.2 mph

Today
High -- | Low -- °F
--% Chance of Precip.
Yesterday
High -- | Low -- °F
Precip. -- in
7:04 AM 7:43 PM
Waxing Gibbous, 88% visible
Pressure 29.72 in
Visibility 10.0 miles
Clouds Mostly Cloudy 600 ft
Overcast 3600 ft
Windchill 39 °F
Dew Point 39 °F
Humidity 88%
Rainfall 0.05 in
Snow Depth Not available.
UV 2 out of 12
Pollen .80 out of 12
Air Quality Not available.
Flu Activity Not available.
METAR KFKL 311855Z AUTO 02009KT 10SM BKN006 OVC036 01/M01 A2972 RMK AO1

More Conditions Fewer Conditions

Pressure 29.72 in
Visibility 10.0 miles
Clouds Mostly Cloudy 600 ft
Overcast 3600 ft
Windchill 39 °F
Dew Point 39 °F
Humidity 88%
Rainfall 0.05 in
Snow Depth Not available.
UV 2 out of 12
Pollen .80 out of 12
Air Quality Not available.
Flu Activity Not available.
METAR KFKL 311855Z AUTO 02009KT 10SM BKN006 OVC036 01/M01 A2972 RMK AO1

More Conditions Fewer Conditions

10-Day Weather Forecast

Almanac

Astronomy

Mar. 31, 2015 Rise Set
Actual Time
Civil Twilight
Nautical Twilight
Astronomical Twilight
Moon
Length of Visible Light
Length of Day
Tomorrow will be .
, % of the Moon is Illuminated

Today's Extremes

State Highs State Lows

Community

WunderPhotos

Upload Photos

1,809,799 photos uploaded!

WunderBlogs® & News

Nearby

Air Quality

  Air Quality AQ Index Pollutant
Not available.

Snow Depth

Station Depth Elevation

Earthquake Activity

City Distance Mag. Time & Date
Minimum magnitude displayed is 2.5.

Coastal Water Temperatures

Place Temperature

Stations

Nearby Weather Stations

Station Location Temp. Windchill Dew Point Humidity Wind Precip. Elev Updated Type